Time;durP1;ratioP1;P1;durP2;ratioP2;P2;SDS_P1;SDS_P2;PMS_P1;PMS_P2;Temp;Humidity;BMP_temperature;BMP_pressure;BME280_temperature;BME280_humidity;BME280_pressure;Samples;Min_cycle;Max_cycle;Signal;HPM_P1;HPM_P2
2023/09/17 00:00:57;;;;;;;;;;;13.10;99.90;;;;;;5055352;28;20332;-65
2023/09/17 00:03:23;;;;;;;;;;;13.10;99.90;;;;;;5054099;28;19928;-66
2023/09/17 00:05:49;;;;;;;;;;;13.20;99.90;;;;;;5055459;28;20201;-65
2023/09/17 00:08:14;;;;;;;;;;;13.10;99.90;;;;;;5085976;28;20607;-65
2023/09/17 00:10:43;;;;;;;;;;;13.10;99.90;;;;;;5052966;28;20043;-66
2023/09/17 00:13:09;;;;;;;;;;;13.20;99.90;;;;;;5068444;28;19920;-65
2023/09/17 00:15:35;;;;;;;;;;;13.10;99.90;;;;;;5054528;28;19963;-65
2023/09/17 00:18:01;;;;;;;;;;;13.10;99.90;;;;;;5085855;28;19924;-65
2023/09/17 00:20:26;;;;;;;;;;;13.20;99.90;;;;;;5085618;28;19931;-65
2023/09/17 00:22:52;;;;;;;;;;;13.10;99.90;;;;;;5086192;28;19982;-65
2023/09/17 00:25:17;;;;;;;;;;;13.00;99.90;;;;;;5036699;28;20440;-65
2023/09/17 00:27:43;;;;;;;;;;;13.00;99.90;;;;;;5070340;28;20273;-66
2023/09/17 00:30:09;;;;;;;;;;;13.00;99.90;;;;;;5038989;28;19931;-65
2023/09/17 00:32:35;;;;;;;;;;;13.00;99.90;;;;;;5085822;28;19932;-66
2023/09/17 00:35:00;;;;;;;;;;;12.90;99.90;;;;;;5052811;28;20335;-66
2023/09/17 00:37:26;;;;;;;;;;;12.90;99.90;;;;;;5086056;28;20586;-65
2023/09/17 00:39:52;;;;;;;;;;;12.90;99.90;;;;;;5055435;28;20417;-65
2023/09/17 00:42:17;;;;;;;;;;;12.90;1.00;;;;;;5086544;28;19969;-65
2023/09/17 00:44:43;;;;;;;;;;;12.90;1.00;;;;;;5053782;28;19936;-65
2023/09/17 00:47:08;;;;;;;;;;;12.90;1.00;;;;;;5085893;28;20384;-65
2023/09/17 00:49:34;;;;;;;;;;;12.90;1.00;;;;;;5085312;28;19928;-65
2023/09/17 00:52:00;;;;;;;;;;;13.00;99.90;;;;;;5053070;28;19963;-65
2023/09/17 00:54:27;;;;;;;;;;;13.00;1.00;;;;;;5085414;28;19954;-65
2023/09/17 00:56:54;;;;;;;;;;;13.00;1.00;;;;;;5036054;28;20015;-65
2023/09/17 00:59:20;;;;;;;;;;;13.00;1.00;;;;;;5051619;28;19924;-65
2023/09/17 01:01:45;;;;;;;;;;;13.10;1.00;;;;;;5083598;28;19935;-66
2023/09/17 01:04:14;;;;;;;;;;;13.00;1.00;;;;;;5068479;28;19928;-65
2023/09/17 01:06:40;;;;;;;;;;;12.90;1.00;;;;;;5052213;28;19929;-65
2023/09/17 01:09:09;;;;;;;;;;;13.00;99.90;;;;;;5051073;28;20200;-65
2023/09/17 01:11:35;;;;;;;;;;;12.90;99.90;;;;;;5055418;28;20111;-66
2023/09/17 01:14:15;;;;;;;;;;;12.90;1.00;;;;;;5053725;28;19921;-65
2023/09/17 01:16:42;;;;;;;;;;;13.00;1.00;;;;;;5051953;28;20108;-66
2023/09/17 01:19:10;;;;;;;;;;;12.90;1.00;;;;;;5052479;28;19924;-65
2023/09/17 01:21:38;;;;;;;;;;;13.00;99.90;;;;;;5053850;28;20752;-65
2023/09/17 01:24:14;;;;;;;;;;;13.00;1.00;;;;;;5055069;28;20007;-65
2023/09/17 01:26:40;;;;;;;;;;;12.90;99.90;;;;;;5084852;28;19929;-65
2023/09/17 01:29:06;;;;;;;;;;;13.10;99.90;;;;;;5084290;28;19924;-65
2023/09/17 01:31:34;;;;;;;;;;;13.00;99.90;;;;;;5085060;28;20345;-64
2023/09/17 01:34:00;;;;;;;;;;;13.10;99.90;;;;;;5085374;28;20015;-64
2023/09/17 01:36:35;;;;;;;;;;;13.10;99.90;;;;;;5051819;28;19932;-65
2023/09/17 01:39:04;;;;;;;;;;;13.20;99.90;;;;;;5066900;28;20575;-63
2023/09/17 01:41:33;;;;;;;;;;;13.10;99.90;;;;;;5052025;28;19964;-63
2023/09/17 01:44:00;;;;;;;;;;;13.10;99.90;;;;;;5035946;28;20163;-63
2023/09/17 01:46:26;;;;;;;;;;;13.10;99.90;;;;;;5052106;28;19940;-64
2023/09/17 01:48:52;;;;;;;;;;;13.20;1.00;;;;;;5051707;28;20042;-63
2023/09/17 01:51:17;;;;;;;;;;;13.30;26.40;;;;;;5053441;28;19989;-64
2023/09/17 01:53:43;;;;;;;;;;;13.50;14.10;;;;;;5067621;28;19924;-64
2023/09/17 01:56:11;;;;;;;;;;;13.50;1.00;;;;;;5052160;28;19927;-63
2023/09/17 01:58:36;;;;;;;;;;;13.50;8.30;;;;;;5051759;28;19931;-63
2023/09/17 02:01:03;;;;;;;;;;;14.10;99.90;;;;;;5067826;28;20353;-63
2023/09/17 02:03:28;;;;;;;;;;;14.20;99.90;;;;;;5067132;28;19924;-63
2023/09/17 02:05:55;;;;;;;;;;;14.60;99.90;;;;;;5052243;28;19940;-63
2023/09/17 02:08:21;;;;;;;;;;;14.90;99.90;;;;;;5066743;28;19928;-63
2023/09/17 02:10:46;;;;;;;;;;;15.00;99.90;;;;;;5051402;28;20726;-63
2023/09/17 02:13:12;;;;;;;;;;;15.20;99.90;;;;;;5067375;28;20019;-64
2023/09/17 02:15:37;;;;;;;;;;;15.10;99.90;;;;;;5051913;28;20468;-63
2023/09/17 02:18:03;;;;;;;;;;;15.20;99.90;;;;;;5084508;28;19994;-63
2023/09/17 02:20:29;;;;;;;;;;;15.40;99.90;;;;;;5051320;28;20751;-63
2023/09/17 02:22:54;;;;;;;;;;;15.70;99.90;;;;;;5083774;28;19929;-64
2023/09/17 02:25:20;;;;;;;;;;;15.60;99.90;;;;;;5083513;28;19928;-63
2023/09/17 02:27:46;;;;;;;;;;;15.70;99.90;;;;;;5053168;28;20436;-63
2023/09/17 02:30:12;;;;;;;;;;;15.70;99.90;;;;;;5067386;28;20330;-63
2023/09/17 02:32:37;;;;;;;;;;;15.80;99.90;;;;;;5053263;28;20142;-63
2023/09/17 02:35:07;;;;;;;;;;;15.70;99.90;;;;;;5066716;28;20557;-64
2023/09/17 02:37:32;;;;;;;;;;;15.70;99.90;;;;;;5052380;28;20341;-65
2023/09/17 02:39:58;;;;;;;;;;;15.70;99.90;;;;;;5052620;28;19930;-65
2023/09/17 02:42:24;;;;;;;;;;;15.80;99.90;;;;;;5052358;28;20007;-65
2023/09/17 02:44:50;;;;;;;;;;;15.70;99.90;;;;;;5034367;28;20369;-66
2023/09/17 02:47:16;;;;;;;;;;;16.00;99.90;;;;;;5066141;28;20112;-66
2023/09/17 02:49:41;;;;;;;;;;;15.80;99.90;;;;;;5083565;28;20021;-66
2023/09/17 02:52:07;;;;;;;;;;;16.10;99.90;;;;;;5083886;28;20390;-66
2023/09/17 02:54:33;;;;;;;;;;;16.20;99.90;;;;;;5066559;28;20791;-65
2023/09/17 02:56:59;;;;;;;;;;;16.00;99.90;;;;;;5050079;28;19931;-66
2023/09/17 02:59:24;;;;;;;;;;;15.90;99.90;;;;;;5083533;28;20593;-65
2023/09/17 03:01:50;;;;;;;;;;;16.10;99.90;;;;;;5035046;28;20341;-65
2023/09/17 03:04:15;;;;;;;;;;;15.80;99.90;;;;;;5051417;28;19924;-65
2023/09/17 03:06:41;;;;;;;;;;;16.00;99.90;;;;;;5050617;28;19928;-65
2023/09/17 03:09:11;;;;;;;;;;;15.80;99.90;;;;;;5082127;28;20629;-65
2023/09/17 03:11:39;;;;;;;;;;;15.60;99.90;;;;;;5050976;28;19955;-65
2023/09/17 03:14:05;;;;;;;;;;;15.60;99.90;;;;;;5052222;28;19979;-65
2023/09/17 03:16:31;;;;;;;;;;;15.80;99.90;;;;;;5083893;28;20799;-65
2023/09/17 03:18:56;;;;;;;;;;;15.70;99.90;;;;;;5083576;28;19931;-65
2023/09/17 03:21:22;;;;;;;;;;;15.90;99.90;;;;;;5033242;28;19946;-64
2023/09/17 03:23:47;;;;;;;;;;;16.10;99.90;;;;;;5066314;28;19932;-65
2023/09/17 03:26:13;;;;;;;;;;;16.00;99.90;;;;;;5083090;28;20129;-65
2023/09/17 03:28:39;;;;;;;;;;;15.70;99.90;;;;;;5049786;28;19924;-64
2023/09/17 03:31:04;;;;;;;;;;;15.90;99.90;;;;;;5083760;28;20034;-64
2023/09/17 03:33:30;;;;;;;;;;;16.00;99.90;;;;;;5052006;28;19924;-64
2023/09/17 03:35:56;;;;;;;;;;;16.00;99.90;;;;;;5050706;28;19924;-64
2023/09/17 03:38:21;;;;;;;;;;;16.10;99.90;;;;;;5050227;28;20045;-64
2023/09/17 03:40:47;;;;;;;;;;;15.80;99.90;;;;;;5084766;28;19934;-65
2023/09/17 03:43:12;;;;;;;;;;;16.00;99.90;;;;;;5084635;28;20336;-65
2023/09/17 03:45:38;;;;;;;;;;;16.00;99.90;;;;;;5052179;28;20008;-64
2023/09/17 03:48:04;;;;;;;;;;;16.30;99.90;;;;;;5050139;28;19939;-63
2023/09/17 03:50:35;;;;;;;;;;;16.30;99.90;;;;;;5054090;28;19924;-65
2023/09/17 03:53:02;;;;;;;;;;;16.20;99.90;;;;;;5038560;28;19924;-64
2023/09/17 03:55:28;;;;;;;;;;;16.50;99.90;;;;;;5037509;28;19959;-65
2023/09/17 03:57:55;;;;;;;;;;;16.30;99.90;;;;;;5087765;28;20236;-64
2023/09/17 04:00:23;;;;;;;;;;;16.60;99.90;;;;;;5056317;28;20001;-65
2023/09/17 04:02:49;;;;;;;;;;;16.40;99.90;;;;;;5054648;28;19963;-66
2023/09/17 04:05:16;;;;;;;;;;;16.70;99.90;;;;;;5087402;28;20100;-65
2023/09/17 04:07:45;;;;;;;;;;;16.80;99.90;;;;;;5071549;28;19985;-65
2023/09/17 04:10:12;;;;;;;;;;;16.50;99.90;;;;;;5037288;28;20284;-65
2023/09/17 04:12:38;;;;;;;;;;;16.80;99.90;;;;;;5088188;28;20530;-65
2023/09/17 04:15:08;;;;;;;;;;;16.60;99.90;;;;;;5053630;28;20500;-65
2023/09/17 04:17:34;;;;;;;;;;;16.60;99.90;;;;;;5087751;28;20208;-65
2023/09/17 04:19:59;;;;;;;;;;;16.90;99.90;;;;;;5056250;28;20308;-65
2023/09/17 04:22:25;;;;;;;;;;;16.50;99.90;;;;;;5053391;28;19954;-65
2023/09/17 04:24:50;;;;;;;;;;;16.80;99.90;;;;;;5052931;28;19935;-65
2023/09/17 04:27:16;;;;;;;;;;;16.70;99.90;;;;;;5053818;28;19934;-65
2023/09/17 04:29:42;;;;;;;;;;;16.80;99.90;;;;;;5087534;28;19924;-65
2023/09/17 04:32:07;;;;;;;;;;;16.80;99.90;;;;;;5052908;28;20342;-66
2023/09/17 04:34:33;;;;;;;;;;;16.70;99.90;;;;;;5069532;28;20077;-64
2023/09/17 04:36:58;;;;;;;;;;;16.70;99.90;;;;;;5037036;28;19928;-65
2023/09/17 04:39:24;;;;;;;;;;;16.80;99.90;;;;;;5054362;28;20009;-65
2023/09/17 04:41:50;;;;;;;;;;;16.60;99.90;;;;;;5054354;28;20383;-65
2023/09/17 04:44:16;;;;;;;;;;;16.60;99.90;;;;;;5054553;28;19930;-65
2023/09/17 04:46:43;;;;;;;;;;;16.90;99.90;;;;;;5055014;28;20539;-64
2023/09/17 04:49:09;;;;;;;;;;;16.60;99.90;;;;;;5053768;28;19924;-64
2023/09/17 04:51:34;;;;;;;;;;;16.70;99.90;;;;;;5053991;28;19997;-64
2023/09/17 04:54:00;;;;;;;;;;;16.80;99.90;;;;;;5054772;28;19967;-65
2023/09/17 04:56:26;;;;;;;;;;;16.80;99.90;;;;;;5063020;28;20267;-64
2023/09/17 04:58:51;;;;;;;;;;;16.80;99.90;;;;;;5044993;28;19989;-64
2023/09/17 05:01:17;;;;;;;;;;;16.80;99.90;;;;;;5062067;28;19931;-64
2023/09/17 05:03:43;;;;;;;;;;;16.70;99.90;;;;;;5067200;28;19924;-64
2023/09/17 05:06:08;;;;;;;;;;;16.70;99.90;;;;;;5077754;28;20552;-64
2023/09/17 05:08:34;;;;;;;;;;;16.70;99.90;;;;;;5042477;28;19925;-64
2023/09/17 05:11:00;;;;;;;;;;;16.90;99.90;;;;;;5046323;28;19924;-64
2023/09/17 05:13:25;;;;;;;;;;;16.70;99.90;;;;;;5060741;28;19943;-65
2023/09/17 05:15:51;;;;;;;;;;;16.80;99.90;;;;;;5062321;28;19953;-66
2023/09/17 05:18:17;;;;;;;;;;;17.00;99.90;;;;;;5041050;28;19928;-65
2023/09/17 05:20:44;;;;;;;;;;;16.90;99.90;;;;;;5059621;28;19931;-64
2023/09/17 05:23:10;;;;;;;;;;;17.00;99.90;;;;;;5061258;28;19928;-64
2023/09/17 05:25:36;;;;;;;;;;;16.90;99.90;;;;;;5052469;28;19924;-64
2023/09/17 05:28:06;;;;;;;;;;;16.90;99.90;;;;;;5045647;28;20423;-63
2023/09/17 05:30:33;;;;;;;;;;;16.80;99.90;;;;;;5081738;28;19924;-63
2023/09/17 05:32:58;;;;;;;;;;;17.00;99.90;;;;;;5042658;28;19942;-63
2023/09/17 05:35:24;;;;;;;;;;;16.90;99.90;;;;;;5075275;28;19924;-64
2023/09/17 05:37:49;;;;;;;;;;;17.00;99.90;;;;;;5060055;28;20252;-63
2023/09/17 05:40:15;;;;;;;;;;;16.90;99.90;;;;;;5049537;28;20307;-63
2023/09/17 05:42:41;;;;;;;;;;;16.70;99.90;;;;;;5062105;28;19924;-64
2023/09/17 05:45:06;;;;;;;;;;;16.90;99.90;;;;;;5067734;28;19964;-62
2023/09/17 05:47:32;;;;;;;;;;;16.70;99.90;;;;;;5075489;28;19932;-63
2023/09/17 05:49:59;;;;;;;;;;;16.80;99.90;;;;;;5045150;28;19924;-64
2023/09/17 05:52:24;;;;;;;;;;;16.70;99.90;;;;;;5075006;28;20247;-64
2023/09/17 05:54:50;;;;;;;;;;;16.60;99.90;;;;;;5079855;28;20185;-65
2023/09/17 05:57:16;;;;;;;;;;;16.90;99.90;;;;;;5046867;28;20317;-65
2023/09/17 05:59:42;;;;;;;;;;;16.80;99.90;;;;;;5063355;28;19931;-65
2023/09/17 06:02:09;;;;;;;;;;;16.70;99.90;;;;;;5081404;28;20337;-65
2023/09/17 06:04:35;;;;;;;;;;;16.80;99.90;;;;;;5063314;28;19924;-65
2023/09/17 06:07:00;;;;;;;;;;;16.80;99.90;;;;;;5079955;28;19920;-65
2023/09/17 06:09:26;;;;;;;;;;;16.60;99.90;;;;;;5079868;28;19927;-66
2023/09/17 06:11:52;;;;;;;;;;;16.60;99.90;;;;;;5079060;28;19947;-65
2023/09/17 06:14:18;;;;;;;;;;;16.80;99.90;;;;;;5079904;28;19928;-64
2023/09/17 06:16:43;;;;;;;;;;;16.80;99.90;;;;;;5079466;28;20011;-64
2023/09/17 06:19:09;;;;;;;;;;;16.90;99.90;;;;;;5063488;28;19920;-65
2023/09/17 06:21:34;;;;;;;;;;;16.90;99.90;;;;;;5080056;28;19924;-65
2023/09/17 06:24:00;;;;;;;;;;;16.90;99.90;;;;;;5080018;28;20011;-64
2023/09/17 06:26:26;;;;;;;;;;;16.70;99.90;;;;;;5079937;28;19924;-64
2023/09/17 06:28:51;;;;;;;;;;;16.80;99.90;;;;;;5080731;28;19935;-65
2023/09/17 06:31:17;;;;;;;;;;;16.80;99.90;;;;;;5062969;28;20091;-64
2023/09/17 06:33:42;;;;;;;;;;;16.90;99.90;;;;;;5079085;28;20108;-64
2023/09/17 06:36:08;;;;;;;;;;;16.80;99.90;;;;;;5061762;28;20371;-65
2023/09/17 06:38:33;;;;;;;;;;;17.00;99.90;;;;;;5079039;28;19928;-66
2023/09/17 06:40:59;;;;;;;;;;;17.20;99.90;;;;;;5079274;28;19971;-65
2023/09/17 06:43:25;;;;;;;;;;;17.20;99.90;;;;;;5079456;28;20014;-65
2023/09/17 06:45:51;;;;;;;;;;;17.40;99.90;;;;;;5080754;28;20369;-65
2023/09/17 06:48:17;;;;;;;;;;;17.40;99.90;;;;;;5079009;28;19920;-66
2023/09/17 06:50:42;;;;;;;;;;;17.40;76.00;;;;;;5079033;28;20207;-66
2023/09/17 06:53:08;;;;;;;;;;;17.50;42.90;;;;;;5080626;28;20333;-64
2023/09/17 06:55:34;;;;;;;;;;;17.40;1.00;;;;;;5079170;28;19924;-65
2023/09/17 06:57:59;;;;;;;;;;;17.40;1.00;;;;;;5046553;28;19920;-65
2023/09/17 07:00:25;;;;;;;;;;;17.40;1.00;;;;;;5080470;28;19928;-65
2023/09/17 07:02:51;;;;;;;;;;;17.50;1.00;;;;;;5062218;28;20290;-65
2023/09/17 07:05:16;;;;;;;;;;;17.50;1.00;;;;;;5080591;28;20022;-65
2023/09/17 07:07:42;;;;;;;;;;;17.40;1.00;;;;;;5079250;28;19924;-65
2023/09/17 07:10:08;;;;;;;;;;;17.60;1.00;;;;;;5079004;28;19920;-65
2023/09/17 07:12:38;;;;;;;;;;;17.60;1.00;;;;;;5079301;28;19924;-64
2023/09/17 07:15:05;;;;;;;;;;;17.80;1.00;;;;;;5080513;28;19928;-64
2023/09/17 07:17:30;;;;;;;;;;;17.60;1.00;;;;;;5061761;28;19920;-64
2023/09/17 07:19:56;;;;;;;;;;;17.90;1.00;;;;;;5045218;28;20372;-64
2023/09/17 07:22:22;;;;;;;;;;;18.00;1.00;;;;;;5078619;28;19928;-64
2023/09/17 07:24:47;;;;;;;;;;;18.30;1.00;;;;;;5082856;28;20301;-64
2023/09/17 07:27:13;;;;;;;;;;;18.40;99.90;;;;;;5084073;28;19931;-64
2023/09/17 07:29:39;;;;;;;;;;;18.40;99.90;;;;;;5083126;28;20639;-65
2023/09/17 07:32:04;;;;;;;;;;;18.40;99.90;;;;;;5082202;28;19986;-64
2023/09/17 07:34:31;;;;;;;;;;;18.20;99.90;;;;;;5082186;28;19920;-65
2023/09/17 07:36:56;;;;;;;;;;;18.00;99.90;;;;;;5082313;28;19932;-65
2023/09/17 07:39:22;;;;;;;;;;;18.00;99.90;;;;;;5065242;28;19931;-65
2023/09/17 07:41:48;;;;;;;;;;;18.00;99.90;;;;;;5082182;28;19921;-65
2023/09/17 07:44:13;;;;;;;;;;;18.00;99.90;;;;;;5082736;28;19920;-64
2023/09/17 07:46:39;;;;;;;;;;;18.20;99.90;;;;;;5083253;28;19928;-65
2023/09/17 07:49:04;;;;;;;;;;;18.40;99.90;;;;;;5082589;28;19924;-64
2023/09/17 07:51:30;;;;;;;;;;;18.30;99.90;;;;;;5082262;28;19924;-64
2023/09/17 07:53:56;;;;;;;;;;;18.40;99.90;;;;;;5065215;28;20327;-64
2023/09/17 07:56:22;;;;;;;;;;;18.50;99.90;;;;;;5083138;28;19926;-64
2023/09/17 07:58:48;;;;;;;;;;;18.60;99.90;;;;;;5082209;28;19931;-65
2023/09/17 08:01:14;;;;;;;;;;;18.70;99.90;;;;;;5083476;28;19924;-64
2023/09/17 08:03:40;;;;;;;;;;;18.90;99.90;;;;;;5082094;28;19927;-64
2023/09/17 08:06:06;;;;;;;;;;;18.80;99.90;;;;;;5064773;28;20298;-64
2023/09/17 08:08:32;;;;;;;;;;;18.90;99.90;;;;;;5064699;28;20534;-64
2023/09/17 08:10:58;;;;;;;;;;;19.00;99.90;;;;;;5064127;28;19935;-64
2023/09/17 08:13:23;;;;;;;;;;;19.00;76.30;;;;;;5065421;28;19973;-64
2023/09/17 08:15:50;;;;;;;;;;;19.20;95.90;;;;;;5081646;28;19928;-65
2023/09/17 08:18:17;;;;;;;;;;;19.20;20.40;;;;;;5083001;28;19937;-65
2023/09/17 08:20:42;;;;;;;;;;;19.30;1.00;;;;;;5080976;28;19924;-65
2023/09/17 08:23:08;;;;;;;;;;;19.40;1.00;;;;;;5064604;28;19920;-65
2023/09/17 08:25:34;;;;;;;;;;;19.50;1.00;;;;;;5081546;28;19923;-64
2023/09/17 08:27:59;;;;;;;;;;;19.60;1.00;;;;;;5065300;28;19924;-65
2023/09/17 08:30:25;;;;;;;;;;;19.80;1.00;;;;;;5081293;28;19981;-65
2023/09/17 08:32:50;;;;;;;;;;;20.00;1.00;;;;;;5081122;28;19923;-64
2023/09/17 08:35:16;;;;;;;;;;;20.00;1.00;;;;;;5080157;28;19943;-64
2023/09/17 08:37:42;;;;;;;;;;;20.30;99.90;;;;;;5081345;28;20346;-64
2023/09/17 08:40:09;;;;;;;;;;;20.90;99.90;;;;;;5080910;28;20373;-64
2023/09/17 08:42:38;;;;;;;;;;;21.50;99.90;;;;;;5081250;28;20135;-64
2023/09/17 08:45:05;;;;;;;;;;;21.70;99.90;;;;;;5081511;28;20432;-63
2023/09/17 08:47:31;;;;;;;;;;;21.40;99.90;;;;;;5081343;28;20015;-64
2023/09/17 08:49:56;;;;;;;;;;;21.00;99.90;;;;;;5081387;28;20205;-64
2023/09/17 08:52:24;;;;;;;;;;;20.60;99.90;;;;;;5082891;28;20010;-64
2023/09/17 08:54:50;;;;;;;;;;;20.40;99.90;;;;;;5080863;28;20057;-65
2023/09/17 08:57:17;;;;;;;;;;;20.20;99.90;;;;;;5064640;28;19924;-64
2023/09/17 08:59:45;;;;;;;;;;;20.30;99.90;;;;;;5081574;28;20416;-64
2023/09/17 09:02:20;;;;;;;;;;;20.20;99.90;;;;;;5082595;28;19947;-64
2023/09/17 09:04:50;;;;;;;;;;;20.20;99.90;;;;;;5080829;28;19920;-64
2023/09/17 09:07:19;;;;;;;;;;;20.10;99.90;;;;;;5082139;28;20402;-64
2023/09/17 09:09:46;;;;;;;;;;;20.20;99.90;;;;;;5081287;28;19924;-64
2023/09/17 09:12:13;;;;;;;;;;;20.10;99.90;;;;;;5080979;28;20539;-64
2023/09/17 09:14:40;;;;;;;;;;;20.30;99.90;;;;;;5080101;28;19959;-65
2023/09/17 09:17:05;;;;;;;;;;;20.70;99.90;;;;;;5064240;28;20290;-65
2023/09/17 09:19:31;;;;;;;;;;;20.90;99.90;;;;;;5080400;28;20622;-65
2023/09/17 09:21:56;;;;;;;;;;;21.00;99.90;;;;;;5081092;28;20188;-65
2023/09/17 09:24:28;;;;;;;;;;;20.90;99.90;;;;;;5080742;28;19920;-64
2023/09/17 09:26:55;;;;;;;;;;;21.00;99.90;;;;;;5081903;28;19981;-64
2023/09/17 09:29:21;;;;;;;;;;;20.90;99.90;;;;;;5063789;28;20022;-65
2023/09/17 09:31:46;;;;;;;;;;;20.90;99.90;;;;;;5080711;28;20271;-65
2023/09/17 09:34:12;;;;;;;;;;;20.70;99.90;;;;;;5080064;28;20034;-64
2023/09/17 09:36:42;;;;;;;;;;;20.60;99.90;;;;;;5081816;28;20408;-64
2023/09/17 09:39:07;;;;;;;;;;;20.50;99.90;;;;;;5047721;28;20162;-64
2023/09/17 09:41:33;;;;;;;;;;;20.50;99.90;;;;;;5079915;28;20379;-65
2023/09/17 09:43:59;;;;;;;;;;;20.50;99.90;;;;;;5079955;28;19926;-64
2023/09/17 09:46:25;;;;;;;;;;;20.40;99.90;;;;;;5078820;28;19929;-64
2023/09/17 09:48:51;;;;;;;;;;;20.50;99.90;;;;;;5079851;28;19924;-65
2023/09/17 09:51:21;;;;;;;;;;;20.50;99.90;;;;;;5080633;28;20295;-65
2023/09/17 09:53:48;;;;;;;;;;;20.50;99.90;;;;;;5080249;28;20170;-64
2023/09/17 09:56:14;;;;;;;;;;;20.50;99.90;;;;;;5081253;28;19977;-65
2023/09/17 09:58:39;;;;;;;;;;;20.50;99.90;;;;;;5046031;28;19928;-63
2023/09/17 10:01:05;;;;;;;;;;;20.60;99.90;;;;;;5079572;28;20316;-63
2023/09/17 10:03:31;;;;;;;;;;;20.80;99.90;;;;;;5079448;28;19924;-64
2023/09/17 10:06:07;;;;;;;;;;;20.90;99.90;;;;;;5081569;28;19976;-64
2023/09/17 10:08:34;;;;;;;;;;;21.20;99.90;;;;;;5062279;28;19924;-64
2023/09/17 10:10:59;;;;;;;;;;;21.40;99.90;;;;;;5079239;28;20376;-63
2023/09/17 10:13:25;;;;;;;;;;;21.50;99.90;;;;;;5079385;28;20211;-63
2023/09/17 10:15:51;;;;;;;;;;;21.70;99.90;;;;;;5080593;28;19932;-64
2023/09/17 10:18:17;;;;;;;;;;;22.10;94.40;;;;;;5063020;28;19998;-64
2023/09/17 10:20:44;;;;;;;;;;;22.50;1.00;;;;;;5062934;28;20325;-64
2023/09/17 10:23:11;;;;;;;;;;;22.60;1.00;;;;;;5080423;28;20420;-63
2023/09/17 10:25:38;;;;;;;;;;;22.60;1.00;;;;;;5079379;28;20289;-64
2023/09/17 10:28:05;;;;;;;;;;;22.50;1.00;;;;;;5080829;28;19938;-64
2023/09/17 10:30:32;;;;;;;;;;;22.50;5.70;;;;;;5078779;28;19928;-65
2023/09/17 10:32:58;;;;;;;;;;;22.40;99.90;;;;;;5079540;28;19924;-65
2023/09/17 10:35:24;;;;;;;;;;;22.30;1.00;;;;;;5079329;28;19931;-64
2023/09/17 10:37:50;;;;;;;;;;;22.10;1.00;;;;;;5079424;28;19920;-65
2023/09/17 10:40:15;;;;;;;;;;;21.90;1.00;;;;;;5062213;28;19977;-64
2023/09/17 10:42:41;;;;;;;;;;;21.80;1.00;;;;;;5078959;28;20119;-65
2023/09/17 10:45:07;;;;;;;;;;;21.50;1.00;;;;;;5079190;28;20023;-64
2023/09/17 10:47:35;;;;;;;;;;;21.40;2.50;;;;;;5079849;28;20344;-65
2023/09/17 10:50:04;;;;;;;;;;;21.20;80.30;;;;;;5079284;28;19928;-65
2023/09/17 10:52:30;;;;;;;;;;;21.00;99.90;;;;;;5062790;28;20293;-65
2023/09/17 10:54:56;;;;;;;;;;;20.90;99.90;;;;;;5079103;28;20121;-65
2023/09/17 10:57:25;;;;;;;;;;;20.70;99.90;;;;;;5061862;28;19932;-64
2023/09/17 10:59:51;;;;;;;;;;;20.60;99.90;;;;;;5078693;28;19924;-65
2023/09/17 11:02:17;;;;;;;;;;;20.50;99.90;;;;;;5079358;28;19924;-65
2023/09/17 11:04:43;;;;;;;;;;;20.60;99.90;;;;;;5079578;28;19924;-64
2023/09/17 11:07:09;;;;;;;;;;;20.60;99.90;;;;;;5078958;28;19949;-65
2023/09/17 11:09:35;;;;;;;;;;;20.80;99.90;;;;;;5078667;28;19920;-65
2023/09/17 11:12:01;;;;;;;;;;;21.10;99.90;;;;;;5061701;28;19920;-65
2023/09/17 11:14:28;;;;;;;;;;;21.30;99.90;;;;;;5078336;28;19971;-65
2023/09/17 11:16:54;;;;;;;;;;;21.50;99.90;;;;;;5079214;28;20152;-65
2023/09/17 11:19:20;;;;;;;;;;;21.50;99.90;;;;;;5078664;28;20289;-65
2023/09/17 11:22:06;;;;;;;;;;;21.60;99.90;;;;;;5078643;28;20038;-65
2023/09/17 11:24:32;;;;;;;;;;;21.50;99.90;;;;;;5078227;28;20019;-65
2023/09/17 11:27:01;;;;;;;;;;;21.40;99.90;;;;;;5080606;28;19935;-65
2023/09/17 11:29:43;;;;;;;;;;;21.30;99.90;;;;;;5079984;28;20000;-64
2023/09/17 11:32:09;;;;;;;;;;;21.20;99.90;;;;;;5062125;28;20397;-65
2023/09/17 11:34:35;;;;;;;;;;;21.00;99.90;;;;;;5078081;28;19924;-65
2023/09/17 11:37:03;;;;;;;;;;;20.90;99.90;;;;;;5079193;28;20002;-65
2023/09/17 11:39:28;;;;;;;;;;;20.90;99.90;;;;;;5078944;28;19950;-64
2023/09/17 11:42:03;;;;;;;;;;;21.00;99.90;;;;;;5078467;28;19924;-64
2023/09/17 11:44:29;;;;;;;;;;;21.40;99.90;;;;;;5078491;28;20016;-64
2023/09/17 11:46:55;;;;;;;;;;;22.10;99.90;;;;;;5078315;28;19928;-64
2023/09/17 11:49:22;;;;;;;;;;;23.10;99.90;;;;;;5062077;28;19924;-64
2023/09/17 11:51:48;;;;;;;;;;;24.30;99.90;;;;;;5079128;28;20664;-64
2023/09/17 11:54:20;;;;;;;;;;;24.80;1.00;;;;;;5078790;28;19977;-64
2023/09/17 11:56:47;;;;;;;;;;;25.00;99.90;;;;;;5078732;28;20253;-65
2023/09/17 11:59:15;;;;;;;;;;;25.00;99.90;;;;;;5079296;28;20480;-64
2023/09/17 12:01:43;;;;;;;;;;;24.80;99.90;;;;;;5078636;28;20487;-65
2023/09/17 12:04:09;;;;;;;;;;;24.70;99.90;;;;;;5062314;28;19971;-64
2023/09/17 12:06:37;;;;;;;;;;;24.70;99.90;;;;;;5078144;28;19932;-64
2023/09/17 12:09:10;;;;;;;;;;;24.70;99.90;;;;;;5078510;28;19923;-64
2023/09/17 12:11:36;;;;;;;;;;;24.40;99.90;;;;;;5065508;28;20231;-64
2023/09/17 12:14:02;;;;;;;;;;;24.10;99.90;;;;;;5082091;28;20515;-64
2023/09/17 12:16:28;;;;;;;;;;;24.10;99.90;;;;;;5082676;28;19924;-65
2023/09/17 12:18:55;;;;;;;;;;;24.00;99.90;;;;;;5082100;28;19943;-65
2023/09/17 12:21:21;;;;;;;;;;;23.50;99.90;;;;;;5083543;28;19920;-65
2023/09/17 12:26:25;;;;;;;;;;;22.90;99.90;;;;;;5082087;28;19956;-66
2023/09/17 12:28:51;;;;;;;;;;;22.50;99.90;;;;;;5082364;28;19927;-66
2023/09/17 12:31:17;;;;;;;;;;;22.40;99.90;;;;;;5065122;28;19924;-66
2023/09/17 12:33:43;;;;;;;;;;;22.20;99.90;;;;;;5081803;28;19931;-65
2023/09/17 12:36:10;;;;;;;;;;;22.10;99.90;;;;;;5081859;28;20041;-66
2023/09/17 12:38:35;;;;;;;;;;;21.90;1.00;;;;;;5081552;28;20380;-66
2023/09/17 12:41:01;;;;;;;;;;;21.80;1.00;;;;;;5064166;28;19924;-65
2023/09/17 12:43:26;;;;;;;;;;;21.60;1.00;;;;;;5081841;28;19978;-65
2023/09/17 12:45:52;;;;;;;;;;;21.50;68.30;;;;;;5081628;28;19930;-65
2023/09/17 12:48:20;;;;;;;;;;;21.40;99.90;;;;;;5082991;28;20301;-65
2023/09/17 12:50:46;;;;;;;;;;;21.40;99.90;;;;;;5082573;28;20395;-64
2023/09/17 12:53:12;;;;;;;;;;;21.50;99.90;;;;;;5081371;28;19920;-65
2023/09/17 12:55:38;;;;;;;;;;;21.90;99.90;;;;;;5081378;28;19924;-65
2023/09/17 12:58:10;;;;;;;;;;;22.30;99.90;;;;;;5081911;28;19946;-65
2023/09/17 13:00:35;;;;;;;;;;;22.40;99.90;;;;;;5082452;28;20297;-65
2023/09/17 13:03:08;;;;;;;;;;;22.50;99.90;;;;;;5064480;28;20227;-65
2023/09/17 13:05:34;;;;;;;;;;;22.40;99.90;;;;;;5081525;28;19959;-65
2023/09/17 13:08:02;;;;;;;;;;;22.60;99.90;;;;;;5081269;28;19924;-65
2023/09/17 13:10:28;;;;;;;;;;;22.80;99.90;;;;;;5081865;28;20349;-66
2023/09/17 13:12:54;;;;;;;;;;;23.10;99.10;;;;;;5081149;28;19924;-66
2023/09/17 13:15:20;;;;;;;;;;;23.40;60.10;;;;;;5080683;28;20442;-65
2023/09/17 13:17:45;;;;;;;;;;;23.50;1.00;;;;;;5081111;28;19924;-66
2023/09/17 13:20:12;;;;;;;;;;;23.30;1.00;;;;;;5080430;28;19954;-65
2023/09/17 13:22:38;;;;;;;;;;;23.20;1.00;;;;;;5080228;28;20084;-66
2023/09/17 13:25:04;;;;;;;;;;;23.20;29.50;;;;;;5080948;28;19935;-65
2023/09/17 13:27:30;;;;;;;;;;;23.10;22.90;;;;;;5063942;28;19954;-66
2023/09/17 13:29:56;;;;;;;;;;;23.10;66.20;;;;;;5080381;28;19920;-65
2023/09/17 13:32:21;;;;;;;;;;;23.00;79.70;;;;;;5080508;28;19920;-64
2023/09/17 13:34:48;;;;;;;;;;;22.90;99.90;;;;;;5081641;28;19968;-65
2023/09/17 13:37:14;;;;;;;;;;;22.90;99.90;;;;;;5080494;28;20402;-65
2023/09/17 13:39:44;;;;;;;;;;;22.80;99.90;;;;;;5080769;28;19927;-66
2023/09/17 13:42:10;;;;;;;;;;;22.80;99.90;;;;;;5080206;28;20636;-66
2023/09/17 13:44:35;;;;;;;;;;;22.80;99.90;;;;;;5079974;28;19928;-65
2023/09/17 13:47:02;;;;;;;;;;;22.80;99.90;;;;;;5063051;28;19925;-66
2023/09/17 13:49:28;;;;;;;;;;;22.70;99.90;;;;;;5079920;28;19955;-66
2023/09/17 13:51:54;;;;;;;;;;;22.70;99.90;;;;;;5079947;28;19990;-66
2023/09/17 13:54:20;;;;;;;;;;;22.70;99.90;;;;;;5082054;28;19959;-66
2023/09/17 13:56:45;;;;;;;;;;;22.70;99.90;;;;;;5080171;28;19920;-66
2023/09/17 13:59:11;;;;;;;;;;;22.70;99.90;;;;;;5081537;28;20377;-66
2023/09/17 14:01:38;;;;;;;;;;;22.80;99.90;;;;;;5080160;28;20451;-66
2023/09/17 14:04:04;;;;;;;;;;;22.80;99.90;;;;;;5079973;28;19924;-66
2023/09/17 14:06:30;;;;;;;;;;;22.80;99.90;;;;;;5062745;28;19982;-65
2023/09/17 14:08:55;;;;;;;;;;;22.80;99.90;;;;;;5080201;28;19926;-65
2023/09/17 14:11:24;;;;;;;;;;;22.80;99.90;;;;;;5081288;28;19931;-65
2023/09/17 14:13:49;;;;;;;;;;;22.80;99.90;;;;;;5081115;28;19970;-65
2023/09/17 14:16:15;;;;;;;;;;;22.80;99.90;;;;;;5062674;28;19928;-66